createdAt,value
2023-03-15T00:00:11.506Z,23.95
2023-03-15T00:03:15.462Z,24.70
2023-03-15T00:06:18.759Z,24.05
2023-03-15T00:09:24.312Z,24.02
2023-03-15T00:12:27.486Z,24.77
2023-03-15T00:15:30.954Z,24.02
2023-03-15T00:18:34.412Z,23.75
2023-03-15T00:21:37.815Z,24.75
2023-03-15T00:24:42.375Z,25.08
2023-03-15T00:27:45.590Z,26.80
2023-03-15T00:30:48.997Z,26.63
2023-03-15T00:33:53.750Z,24.30
2023-03-15T00:36:59.122Z,25.05
2023-03-15T00:40:03.765Z,25.55
2023-03-15T00:43:07.003Z,26.38
2023-03-15T00:46:11.641Z,27.52
2023-03-15T00:49:14.816Z,27.75
2023-03-15T00:52:18.168Z,27.27
2023-03-15T00:55:23.500Z,27.48
2023-03-15T00:58:27.615Z,27.67
2023-03-15T01:01:31.808Z,26.55
2023-03-15T01:04:36.416Z,26.83
2023-03-15T01:07:39.673Z,26.80
2023-03-15T01:10:44.466Z,26.95
2023-03-15T01:13:48.250Z,25.33
2023-03-15T01:16:52.012Z,25.02
2023-03-15T01:19:55.417Z,23.83
2023-03-15T01:22:58.864Z,24.13
2023-03-15T01:26:04.182Z,23.42
2023-03-15T01:29:07.429Z,22.67
2023-03-15T01:32:11.265Z,22.38
2023-03-15T01:35:14.698Z,23.08
2023-03-15T01:38:17.918Z,21.83
2023-03-15T01:41:24.814Z,20.95
2023-03-15T01:44:50.677Z,20.60
2023-03-15T01:47:54.270Z,19.13
2023-03-15T01:50:59.113Z,19.02
2023-03-15T01:54:07.131Z,18.70
2023-03-15T01:57:17.350Z,17.65
2023-03-15T02:00:22.178Z,17.67
2023-03-15T02:03:37.303Z,16.70
2023-03-15T02:06:46.668Z,16.65
2023-03-15T02:09:58.600Z,16.60
2023-03-15T02:13:04.580Z,16.30
2023-03-15T02:16:09.358Z,15.80
2023-03-15T02:19:33.972Z,16.45
2023-03-15T02:22:46.519Z,16.88
2023-03-15T02:25:56.446Z,16.77
2023-03-15T02:29:01.812Z,15.75
2023-03-15T02:32:05.434Z,15.32
2023-03-15T02:35:09.329Z,15.48
2023-03-15T02:38:12.469Z,14.98
2023-03-15T02:41:19.300Z,14.98
2023-03-15T02:44:29.149Z,15.52
2023-03-15T02:47:34.660Z,14.40
2023-03-15T02:50:38.857Z,14.70
2023-03-15T02:53:42.050Z,15.15
2023-03-15T02:56:45.224Z,18.20
2023-03-15T02:59:50.896Z,29.45
2023-03-15T03:02:54.455Z,17.80
2023-03-15T03:05:57.661Z,9.05
2023-03-15T03:09:04.738Z,10.02
2023-03-15T03:12:08.909Z,8.73
2023-03-15T03:15:14.241Z,10.68
2023-03-15T03:18:18.170Z,7.75
2023-03-15T03:21:21.644Z,7.72
2023-03-15T03:24:26.837Z,25.83
2023-03-15T03:27:31.291Z,7.75
2023-03-15T03:30:38.022Z,7.75
2023-03-15T03:33:41.326Z,8.32
2023-03-15T03:36:45.085Z,32.65
2023-03-15T03:39:51.582Z,10.93
2023-03-15T03:42:54.740Z,16.35
2023-03-15T03:45:59.313Z,10.00
2023-03-15T03:49:03.587Z,12.43
2023-03-15T03:52:08.761Z,10.98
2023-03-15T03:55:13.785Z,44.30
2023-03-15T03:58:18.725Z,20.55
2023-03-15T04:01:31.293Z,56.28
2023-03-15T04:04:35.783Z,14.85
2023-03-15T04:07:40.293Z,20.45
2023-03-15T04:10:46.334Z,7.72
2023-03-15T04:13:49.988Z,5.55
2023-03-15T04:16:55.577Z,5.43
2023-03-15T04:19:59.501Z,5.10
2023-03-15T04:23:07.386Z,7.10
2023-03-15T04:26:17.235Z,16.98
2023-03-15T04:29:43.666Z,3.88
2023-03-15T04:33:11.277Z,3.50
2023-03-15T04:36:33.420Z,4.10
2023-03-15T04:39:39.642Z,4.15
2023-03-15T04:43:18.438Z,5.30
2023-03-15T04:46:52.199Z,6.05
2023-03-15T04:50:05.839Z,6.88
2023-03-15T04:53:22.213Z,8.55
2023-03-15T04:56:54.854Z,6.15
2023-03-15T05:00:17.091Z,5.75
2023-03-15T05:03:52.253Z,6.15
2023-03-15T05:07:09.977Z,5.60
2023-03-15T05:10:34.341Z,5.60
2023-03-15T05:14:03.815Z,5.72
2023-03-15T05:17:28.044Z,13.77
2023-03-15T05:20:49.462Z,5.53
2023-03-15T05:24:20.568Z,10.40
2023-03-15T05:27:46.538Z,5.60
2023-03-15T05:31:12.774Z,12.15
2023-03-15T05:34:45.386Z,15.52
2023-03-15T05:37:59.945Z,9.32
2023-03-15T05:41:24.142Z,7.35
2023-03-15T05:44:58.429Z,16.92
2023-03-15T05:48:20.498Z,6.75
2023-03-15T05:51:33.700Z,21.75
2023-03-15T05:54:55.459Z,6.75
2023-03-15T05:58:31.772Z,6.68
2023-03-15T06:01:57.468Z,6.22
2023-03-15T06:05:08.112Z,5.97
2023-03-15T06:08:12.214Z,5.88
2023-03-15T06:11:18.975Z,5.55
2023-03-15T06:14:24.465Z,5.25
2023-03-15T06:17:31.304Z,5.40
2023-03-15T06:20:34.995Z,5.43
2023-03-15T06:23:44.405Z,10.00
2023-03-15T06:26:47.931Z,4.70
2023-03-15T06:29:53.961Z,4.90
2023-03-15T06:32:59.245Z,4.78
2023-03-15T06:36:02.773Z,4.47
2023-03-15T06:39:06.279Z,4.80
2023-03-15T06:42:10.911Z,5.00
2023-03-15T06:45:17.596Z,5.28
2023-03-15T06:48:22.664Z,5.10
2023-03-15T06:51:25.972Z,4.65
2023-03-15T06:54:29.198Z,5.03
2023-03-15T06:57:33.155Z,5.03
2023-03-15T07:00:38.218Z,4.82
2023-03-15T07:03:41.536Z,4.25
2023-03-15T07:06:44.717Z,4.93
2023-03-15T07:09:47.909Z,4.20
2023-03-15T07:12:51.077Z,5.32
2023-03-15T07:15:56.750Z,4.85
2023-03-15T07:19:00.130Z,5.32
2023-03-15T07:22:03.324Z,5.25
2023-03-15T07:25:07.597Z,5.85
2023-03-15T07:28:10.812Z,5.32
2023-03-15T07:31:16.127Z,5.70
2023-03-15T07:34:19.573Z,10.10
2023-03-15T07:37:22.993Z,6.00
2023-03-15T07:40:26.421Z,6.75
2023-03-15T07:43:30.443Z,7.05
2023-03-15T07:46:47.126Z,7.70
2023-03-15T07:49:50.321Z,7.72
2023-03-15T07:52:53.752Z,8.23
2023-03-15T07:55:57.121Z,8.48
2023-03-15T07:59:00.341Z,8.73
2023-03-15T08:02:05.201Z,17.30
2023-03-15T08:05:10.084Z,8.68
2023-03-15T08:08:13.355Z,9.30
2023-03-15T08:11:16.546Z,9.52
2023-03-15T08:14:19.788Z,9.63
2023-03-15T08:17:24.649Z,10.27
2023-03-15T08:20:29.914Z,8.98
2023-03-15T08:23:33.585Z,9.02
2023-03-15T08:26:36.838Z,8.60
2023-03-15T08:29:40.216Z,8.30
2023-03-15T08:32:47.304Z,8.38
2023-03-15T08:35:54.365Z,8.63
2023-03-15T08:38:58.372Z,7.93
2023-03-15T08:42:01.624Z,9.32
2023-03-15T08:45:07.134Z,6.60
2023-03-15T08:48:14.473Z,7.50
2023-03-15T08:51:20.163Z,7.03
2023-03-15T08:54:23.567Z,7.43
2023-03-15T08:57:29.307Z,7.47
2023-03-15T09:00:32.856Z,7.68
2023-03-15T09:03:37.520Z,7.55
2023-03-15T09:06:42.319Z,8.07
2023-03-15T09:09:48.257Z,8.02
2023-03-15T09:12:53.974Z,7.55
2023-03-15T09:15:58.673Z,7.25
2023-03-15T09:19:03.266Z,8.23
2023-03-15T09:22:16.296Z,8.75
2023-03-15T09:25:28.189Z,7.72
2023-03-15T09:28:31.416Z,8.40
2023-03-15T09:31:35.085Z,7.10
2023-03-15T09:34:42.232Z,6.68
2023-03-15T09:37:46.114Z,6.65
2023-03-15T09:40:50.086Z,6.22
2023-03-15T09:44:09.004Z,6.40
2023-03-15T09:47:24.046Z,8.60
2023-03-15T09:50:34.245Z,6.13
2023-03-15T09:53:41.304Z,6.38
2023-03-15T09:56:51.499Z,6.55
2023-03-15T09:59:56.911Z,6.00
2023-03-15T10:03:07.097Z,5.38
2023-03-15T10:06:18.427Z,5.93
2023-03-15T10:09:24.378Z,5.85
2023-03-15T10:12:31.988Z,5.90
2023-03-15T10:15:44.026Z,6.60
2023-03-15T10:19:03.740Z,6.10
2023-03-15T10:22:19.364Z,6.53
2023-03-15T10:25:26.278Z,5.82
2023-03-15T10:28:34.787Z,5.93
2023-03-15T10:31:44.938Z,5.97
2023-03-15T10:34:52.132Z,6.10
2023-03-15T10:37:57.020Z,6.35
2023-03-15T10:41:01.705Z,8.07
2023-03-15T10:44:08.073Z,6.70
2023-03-15T10:47:23.518Z,5.75
2023-03-15T10:50:29.362Z,6.40
2023-03-15T10:53:34.318Z,6.43
2023-03-15T10:56:44.823Z,6.72
2023-03-15T10:59:58.664Z,7.00
2023-03-15T11:03:05.275Z,7.13
2023-03-15T11:06:22.632Z,6.90
2023-03-15T11:09:28.354Z,7.97
2023-03-15T11:12:33.343Z,8.00
2023-03-15T11:15:36.644Z,6.70
2023-03-15T11:18:48.480Z,6.70
2023-03-15T11:21:52.962Z,7.50
2023-03-15T11:24:59.099Z,6.97
2023-03-15T11:28:02.628Z,6.97
2023-03-15T11:31:09.208Z,7.13
2023-03-15T11:34:18.809Z,7.53
2023-03-15T11:37:25.786Z,6.70
2023-03-15T11:40:34.581Z,7.18
2023-03-15T11:43:48.871Z,7.10
2023-03-15T11:46:58.910Z,7.35
2023-03-15T11:50:02.237Z,7.45
2023-03-15T11:53:07.345Z,7.13
2023-03-15T11:56:45.458Z,6.25
2023-03-15T11:59:49.239Z,7.72
2023-03-15T12:02:55.420Z,6.97
2023-03-15T12:06:05.349Z,7.40
2023-03-15T12:09:40.629Z,6.68
2023-03-15T12:12:48.675Z,6.85
2023-03-15T12:15:53.225Z,7.57
2023-03-15T12:18:59.851Z,7.00
2023-03-15T12:22:03.262Z,6.93
2023-03-15T12:25:13.941Z,10.45
2023-03-15T12:28:26.611Z,7.32
2023-03-15T12:31:45.368Z,7.22
2023-03-15T12:34:50.889Z,7.25
2023-03-15T12:37:54.637Z,6.32
2023-03-15T12:40:59.229Z,7.47
2023-03-15T12:44:34.964Z,6.60
2023-03-15T12:47:47.673Z,6.32
2023-03-15T12:51:01.992Z,7.32
2023-03-15T12:54:06.591Z,6.88
2023-03-15T12:57:13.218Z,6.07
2023-03-15T13:00:18.700Z,6.65
2023-03-15T13:03:24.969Z,6.50
2023-03-15T13:06:43.571Z,6.03
2023-03-15T13:10:23.135Z,5.95
2023-03-15T13:13:51.498Z,6.10
2023-03-15T13:17:05.807Z,5.88
2023-03-15T13:20:36.979Z,6.20
2023-03-15T13:23:44.405Z,9.05
2023-03-15T13:26:55.704Z,6.00
2023-03-15T13:29:58.986Z,5.85
2023-03-15T13:33:18.621Z,7.82
2023-03-15T13:36:25.596Z,6.63
2023-03-15T13:39:31.297Z,11.45
2023-03-15T13:42:34.571Z,9.30
2023-03-15T13:45:39.036Z,8.30
2023-03-15T13:48:43.674Z,7.50
2023-03-15T13:51:50.097Z,10.77
2023-03-15T13:54:55.046Z,7.47
2023-03-15T13:58:00.648Z,7.03
2023-03-15T14:01:09.324Z,10.75
2023-03-15T14:04:18.690Z,8.95
2023-03-15T14:07:29.979Z,7.18
2023-03-15T14:10:36.065Z,9.90
2023-03-15T14:13:51.348Z,9.50
2023-03-15T14:17:05.361Z,10.35
2023-03-15T14:20:16.509Z,9.18
2023-03-15T14:23:25.236Z,11.50
2023-03-15T14:26:29.623Z,8.60
2023-03-15T14:29:35.443Z,9.05
2023-03-15T14:32:51.930Z,8.57
2023-03-15T14:35:58.741Z,8.13
2023-03-15T14:39:03.458Z,9.75
2023-03-15T14:42:07.259Z,7.03
2023-03-15T14:45:11.104Z,7.75
2023-03-15T14:48:16.604Z,7.18
2023-03-15T14:51:23.156Z,7.60
2023-03-15T14:54:29.658Z,6.85
2023-03-15T14:57:32.959Z,8.50
2023-03-15T15:00:36.331Z,8.65
2023-03-15T15:03:41.945Z,7.88
2023-03-15T15:06:50.960Z,9.20
2023-03-15T15:10:00.394Z,9.73
2023-03-15T15:13:07.059Z,8.70
2023-03-15T15:16:11.483Z,8.10
2023-03-15T15:19:15.794Z,8.50
2023-03-15T15:22:20.204Z,8.52
2023-03-15T15:25:26.123Z,8.82
2023-03-15T15:28:36.412Z,9.45
2023-03-15T15:31:46.675Z,10.90
2023-03-15T15:34:50.122Z,12.68
2023-03-15T15:37:53.756Z,11.20
2023-03-15T15:40:58.421Z,9.68
2023-03-15T15:44:01.902Z,15.43
2023-03-15T15:47:05.784Z,15.77
2023-03-15T15:50:12.144Z,13.57
2023-03-15T15:53:19.135Z,14.10
2023-03-15T15:56:33.739Z,13.30
2023-03-15T15:59:37.363Z,16.83
2023-03-15T16:02:40.702Z,46.38
2023-03-15T16:05:44.274Z,14.10
2023-03-15T16:08:49.030Z,25.05
2023-03-15T16:11:55.514Z,19.73
2023-03-15T16:15:05.088Z,20.23
2023-03-15T16:18:11.304Z,17.17
2023-03-15T16:21:18.237Z,38.28
2023-03-15T16:24:26.198Z,18.20
2023-03-15T16:27:31.485Z,36.95
2023-03-15T16:30:35.026Z,16.75
2023-03-15T16:33:38.312Z,21.35
2023-03-15T16:36:43.722Z,17.48
2023-03-15T16:39:52.809Z,13.77
2023-03-15T16:42:58.197Z,61.60
2023-03-15T16:46:06.679Z,21.42
2023-03-15T16:49:14.276Z,16.83
2023-03-15T16:52:19.864Z,17.77
2023-03-15T16:55:27.487Z,13.20
2023-03-15T16:58:32.856Z,12.73
2023-03-15T17:01:39.883Z,21.08
2023-03-15T17:04:47.103Z,11.55
2023-03-15T17:07:52.564Z,15.27
2023-03-15T17:10:55.951Z,16.38
2023-03-15T17:14:01.089Z,17.35
2023-03-15T17:17:04.469Z,18.67
2023-03-15T17:20:10.395Z,15.57
2023-03-15T17:23:15.045Z,17.35
2023-03-15T17:26:20.406Z,15.45
2023-03-15T17:29:28.526Z,14.73
2023-03-15T17:32:32.153Z,12.75
2023-03-15T17:35:41.221Z,13.70
2023-03-15T17:41:58.326Z,13.07
2023-03-15T17:45:16.016Z,13.30
2023-03-15T17:48:21.004Z,13.43
2023-03-15T17:51:26.708Z,15.27
2023-03-15T17:54:29.964Z,14.52
2023-03-15T17:57:33.841Z,15.60
2023-03-15T18:00:40.057Z,14.02
2023-03-15T18:03:48.637Z,17.05
2023-03-15T18:06:54.053Z,31.08
2023-03-15T18:09:57.626Z,22.08
2023-03-15T18:13:00.887Z,20.10
2023-03-15T18:16:07.390Z,16.42
2023-03-15T18:19:10.932Z,12.82
2023-03-15T18:22:17.803Z,13.13
2023-03-15T18:25:22.920Z,13.63
2023-03-15T18:28:26.263Z,12.07
2023-03-15T18:31:31.041Z,11.93
2023-03-15T18:34:34.926Z,13.20
2023-03-15T18:37:38.191Z,14.40
2023-03-15T18:40:41.616Z,14.52
2023-03-15T18:43:49.681Z,13.02
2023-03-15T18:46:54.519Z,14.15
2023-03-15T18:50:04.523Z,16.35
2023-03-15T18:53:13.141Z,13.50
2023-03-15T18:56:20.435Z,16.27
2023-03-15T18:59:25.853Z,12.73
2023-03-15T19:02:31.920Z,11.77
2023-03-15T19:05:39.261Z,12.88
2023-03-15T19:08:43.040Z,12.40
2023-03-15T19:11:47.009Z,13.65
2023-03-15T19:14:52.198Z,13.45
2023-03-15T19:17:56.925Z,13.00
2023-03-15T19:21:00.753Z,16.85
2023-03-15T19:24:05.389Z,14.02
2023-03-15T19:27:08.711Z,13.65
2023-03-15T19:30:16.997Z,13.82
2023-03-15T19:33:21.722Z,14.68
2023-03-15T19:36:25.542Z,24.15
2023-03-15T19:39:29.007Z,22.85
2023-03-15T19:42:32.591Z,21.50
2023-03-15T19:45:35.944Z,18.15
2023-03-15T19:48:41.061Z,16.33
2023-03-15T19:51:44.465Z,16.88
2023-03-15T19:54:49.013Z,16.23
2023-03-15T19:57:52.977Z,16.58
2023-03-15T20:00:57.384Z,16.23
2023-03-15T20:04:04.622Z,16.95
2023-03-15T20:07:11.235Z,17.95
2023-03-15T20:10:15.613Z,17.83
2023-03-15T20:13:21.951Z,18.80
2023-03-15T20:16:26.188Z,18.30
2023-03-15T20:19:34.377Z,18.95
2023-03-15T20:22:40.918Z,19.27
2023-03-15T20:25:45.737Z,19.90
2023-03-15T20:28:50.549Z,22.88
2023-03-15T20:31:54.505Z,25.08
2023-03-15T20:35:02.290Z,23.35
2023-03-15T20:38:09.022Z,23.88
2023-03-15T20:41:20.370Z,22.15
2023-03-15T20:44:26.509Z,22.38
2023-03-15T20:47:32.771Z,26.30
2023-03-15T20:50:39.305Z,36.53
2023-03-15T20:53:44.309Z,29.27
2023-03-15T20:56:47.977Z,25.02
2023-03-15T20:59:52.615Z,23.08
2023-03-15T21:02:56.227Z,21.83
2023-03-15T21:06:01.898Z,23.58
2023-03-15T21:09:06.150Z,25.83
2023-03-15T21:12:09.958Z,27.77
2023-03-15T21:15:17.498Z,29.13
2023-03-15T21:18:23.662Z,25.63
2023-03-15T21:21:28.898Z,24.42
2023-03-15T21:24:40.661Z,22.45
2023-03-15T21:27:46.968Z,23.58
2023-03-15T21:30:52.395Z,23.67
2023-03-15T21:33:55.859Z,23.55
2023-03-15T21:37:00.634Z,24.00
2023-03-15T21:40:06.460Z,22.20
2023-03-15T21:43:09.735Z,21.98
2023-03-15T21:46:14.365Z,22.50
2023-03-15T21:49:17.639Z,22.58
2023-03-15T21:52:23.108Z,23.08
2023-03-15T21:55:26.529Z,21.83
2023-03-15T21:58:30.179Z,24.48
2023-03-15T22:01:33.467Z,37.28
2023-03-15T22:04:36.881Z,35.63
2023-03-15T22:07:42.565Z,33.95
2023-03-15T22:10:46.000Z,28.80
2023-03-15T22:13:49.198Z,28.25
2023-03-15T22:16:52.854Z,26.65
2023-03-15T22:19:56.187Z,26.60
2023-03-15T22:23:04.278Z,27.00
2023-03-15T22:26:07.788Z,25.63
2023-03-15T22:29:11.928Z,25.15
2023-03-15T22:32:15.298Z,27.60
2023-03-15T22:35:19.216Z,24.67
2023-03-15T22:38:24.294Z,24.90
2023-03-15T22:41:27.510Z,23.35
2023-03-15T22:44:30.795Z,20.95
2023-03-15T22:47:33.989Z,21.58
2023-03-15T22:50:37.230Z,19.52
2023-03-15T22:53:41.959Z,19.50
2023-03-15T22:56:45.143Z,19.48
2023-03-15T22:59:48.389Z,19.42
2023-03-15T23:02:51.876Z,19.83
2023-03-15T23:05:55.642Z,19.17
2023-03-15T23:09:00.822Z,18.83
2023-03-15T23:12:04.250Z,19.60
2023-03-15T23:15:08.833Z,19.67
2023-03-15T23:18:13.926Z,19.95
2023-03-15T23:21:17.145Z,19.88
2023-03-15T23:24:24.654Z,20.23
2023-03-15T23:27:28.048Z,19.08
2023-03-15T23:30:35.130Z,19.58
2023-03-15T23:33:38.996Z,19.75
2023-03-15T23:36:44.113Z,18.98
2023-03-15T23:39:49.945Z,19.38
2023-03-15T23:42:59.040Z,19.75
2023-03-15T23:46:04.816Z,20.55
2023-03-15T23:49:09.615Z,19.98
2023-03-15T23:52:12.932Z,19.75
2023-03-15T23:55:17.789Z,20.42
2023-03-15T23:58:21.407Z,20.75
